createdAt,value
2014-07-19T05:18:22.641Z,101253
2014-07-19T05:18:40.860Z,101233
2014-07-19T05:18:59.094Z,101241
2014-07-19T05:19:16.688Z,101238
2014-07-19T05:19:34.909Z,101227
2014-07-19T05:19:53.253Z,101218
2014-07-19T05:20:41.942Z,101232
2014-07-19T05:21:00.161Z,101235
2014-07-19T05:21:16.505Z,101229
2014-07-19T05:21:34.850Z,101229
2014-07-19T05:21:51.819Z,101228
2014-07-19T05:22:09.413Z,101237
2014-07-19T05:22:27.008Z,101231
2014-07-19T05:22:43.976Z,101240
2014-07-19T05:23:01.570Z,101228
2014-07-19T05:23:19.289Z,101231
2014-07-19T05:23:37.650Z,101225
2014-07-19T05:23:55.244Z,101231
2014-07-19T05:24:12.213Z,101234
2014-07-19T05:24:29.168Z,101234
2014-07-19T05:24:47.543Z,101234
2014-07-19T05:25:05.746Z,101234
2014-07-19T05:25:24.121Z,101236
2014-07-19T05:25:41.076Z,101239
2014-07-19T05:25:58.060Z,101245
2014-07-19T05:26:15.639Z,101236
2014-07-19T05:26:34.001Z,101233
2014-07-19T05:26:51.095Z,101236
2014-07-19T05:27:08.688Z,101239
2014-07-19T05:27:27.049Z,101239
2014-07-19T05:27:45.268Z,101236
2014-07-19T05:28:03.486Z,101239
2014-07-19T05:28:21.705Z,101242
2014-07-19T05:28:39.941Z,101233
2014-07-19T05:28:57.035Z,101236
2014-07-19T05:29:15.254Z,101231
2014-07-19T05:29:32.225Z,101230
2014-07-19T05:29:50.443Z,101230
2014-07-19T05:30:08.037Z,101236
2014-07-19T05:30:26.256Z,101230
2014-07-19T05:30:43.867Z,101236
2014-07-19T05:31:02.086Z,101231
2014-07-19T05:31:20.305Z,101233
2014-07-19T05:31:37.901Z,101228
2014-07-19T05:31:56.244Z,101228
2014-07-19T05:32:13.854Z,101236
2014-07-19T05:32:30.822Z,101231
2014-07-19T05:32:48.418Z,101228
2014-07-19T05:33:05.387Z,101225
2014-07-19T05:33:23.121Z,101231
2014-07-19T05:33:41.373Z,101233
2014-07-19T05:33:58.342Z,101228
2014-07-19T05:34:16.561Z,101228
2014-07-19T05:34:34.326Z,101233
2014-07-19T05:34:52.045Z,101228
2014-07-19T05:35:10.279Z,101222
2014-07-19T05:35:28.498Z,101225
2014-07-19T05:35:46.136Z,101228
2014-07-19T05:36:04.370Z,101216
2014-07-19T05:36:21.964Z,101228
2014-07-19T05:36:39.600Z,101225
2014-07-19T05:36:57.818Z,101228
2014-07-19T05:37:16.037Z,101222
2014-07-19T05:37:33.631Z,101231
2014-07-19T05:37:51.283Z,101225
2014-07-19T05:38:08.877Z,101228
2014-07-19T05:38:27.111Z,101225
2014-07-19T05:38:44.747Z,101228
2014-07-19T05:39:03.107Z,101213
2014-07-19T05:39:21.466Z,101231
2014-07-19T05:39:39.060Z,101231
2014-07-19T05:39:57.424Z,101222
2014-07-19T05:40:15.659Z,101213
2014-07-19T05:40:33.253Z,101222
2014-07-19T05:40:50.988Z,101225
2014-07-19T05:41:08.723Z,101210
2014-07-19T05:41:26.941Z,101225
2014-07-19T05:41:45.177Z,101225
2014-07-19T05:42:02.771Z,101219
2014-07-19T05:42:19.740Z,101219
2014-07-19T05:42:38.099Z,101216
2014-07-19T05:42:56.334Z,101207
2014-07-19T05:43:14.693Z,101210
2014-07-19T05:43:32.912Z,101216
2014-07-19T05:43:51.148Z,101216
2014-07-19T05:44:09.366Z,101207
2014-07-19T05:44:27.726Z,101207
2014-07-19T05:44:45.453Z,101213
2014-07-19T05:45:03.671Z,101210
2014-07-19T05:45:21.890Z,101205
2014-07-19T05:45:39.499Z,101207
2014-07-19T05:45:57.851Z,101216
2014-07-19T05:46:15.445Z,101207
2014-07-19T05:46:33.945Z,101208
2014-07-19T05:46:52.311Z,101210
2014-07-19T05:47:10.530Z,101208
2014-07-19T05:47:28.749Z,101202
2014-07-19T05:47:46.358Z,101208
2014-07-19T05:48:04.584Z,101196
2014-07-19T05:48:21.553Z,101196
2014-07-19T05:48:39.287Z,101199
2014-07-19T05:48:56.888Z,101213
2014-07-19T05:49:14.482Z,101196
2014-07-19T05:49:32.700Z,101208
2014-07-19T05:49:51.060Z,101208
2014-07-19T05:50:08.032Z,101202
2014-07-19T05:50:26.376Z,101205
2014-07-19T05:50:44.736Z,101208
2014-07-19T05:51:03.099Z,101199
2014-07-19T05:51:21.443Z,101199
2014-07-19T05:51:39.177Z,101207
2014-07-19T05:51:57.400Z,101207
2014-07-19T05:52:15.759Z,101196
2014-07-19T05:52:33.353Z,101199
2014-07-19T05:52:50.947Z,101196
2014-07-19T05:53:08.544Z,101199
2014-07-19T05:53:26.138Z,101216
2014-07-19T05:53:43.748Z,101202
2014-07-19T05:54:01.469Z,101211
2014-07-19T05:54:19.063Z,101211
2014-07-19T05:54:37.297Z,101202
2014-07-19T05:54:55.516Z,101208
2014-07-19T05:55:13.738Z,101202
2014-07-19T05:55:31.957Z,101211
2014-07-19T05:55:50.285Z,101205
2014-07-19T05:56:08.710Z,101214
2014-07-19T05:56:26.928Z,101205
2014-07-19T05:56:45.303Z,101205
2014-07-19T05:57:02.899Z,101214
2014-07-19T05:57:21.118Z,101208
2014-07-19T05:57:38.712Z,101214
2014-07-19T05:57:57.055Z,101214
2014-07-19T05:58:14.668Z,101211
2014-07-19T05:58:32.887Z,101214
2014-07-19T05:58:51.105Z,101214
2014-07-19T05:59:09.327Z,101214
2014-07-19T05:59:27.561Z,101222
2014-07-19T05:59:45.140Z,101222
2014-07-19T06:00:02.734Z,101222
2014-07-19T06:00:20.969Z,101208
2014-07-19T06:00:38.547Z,101208
2014-07-19T06:00:56.906Z,101208
2014-07-19T06:01:15.143Z,101211
2014-07-19T06:01:33.361Z,101222
2014-07-19T06:01:51.580Z,101219
2014-07-19T06:02:08.551Z,101211
2014-07-19T06:02:25.520Z,101214
2014-07-19T06:02:42.488Z,101211
2014-07-19T06:03:00.725Z,101214
2014-07-19T06:03:18.459Z,101211
2014-07-19T06:03:36.053Z,101220
2014-07-19T06:03:53.772Z,101225
2014-07-19T06:04:11.992Z,101222
2014-07-19T06:04:28.477Z,101220
2014-07-19T06:04:46.070Z,101202
2014-07-19T06:05:03.166Z,101208
2014-07-19T06:05:21.385Z,101220
2014-07-19T06:05:38.979Z,101214
2014-07-19T06:05:57.213Z,101217
2014-07-19T06:06:15.434Z,101225
2014-07-19T06:06:33.028Z,101217
2014-07-19T06:06:51.246Z,101217
2014-07-19T06:07:09.498Z,101217
2014-07-19T06:07:27.076Z,101211
2014-07-19T06:07:45.420Z,101211
2014-07-19T06:08:03.032Z,101214
2014-07-19T06:08:21.250Z,101217
2014-07-19T06:08:38.844Z,101211
2014-07-19T06:08:57.063Z,101211
2014-07-19T06:09:15.299Z,101217
2014-07-19T06:09:32.893Z,101220
2014-07-19T06:09:50.518Z,101211
2014-07-19T06:10:07.489Z,101205
2014-07-19T06:10:25.098Z,101217
2014-07-19T06:10:42.692Z,101217
2014-07-19T06:11:00.288Z,101217
2014-07-19T06:11:17.881Z,101217
2014-07-19T06:11:34.991Z,101220
2014-07-19T06:11:53.209Z,101217
2014-07-19T06:12:11.430Z,101217
2014-07-19T06:12:28.399Z,101214
2014-07-19T06:12:46.758Z,101225
2014-07-19T06:13:04.353Z,101205
2014-07-19T06:13:22.572Z,101217
2014-07-19T06:13:39.541Z,101222
2014-07-19T06:13:57.134Z,101211
2014-07-19T06:14:14.731Z,101202
2014-07-19T06:14:32.325Z,101220
2014-07-19T06:14:50.684Z,101217
2014-07-19T06:15:09.046Z,101217
2014-07-19T06:15:27.264Z,101208
2014-07-19T06:15:45.483Z,101222
2014-07-19T06:16:03.703Z,101211
2014-07-19T06:16:22.078Z,101214
2014-07-19T06:16:39.656Z,101214
2014-07-19T06:16:57.250Z,101217
2014-07-19T06:17:14.987Z,101220
2014-07-19T06:17:33.221Z,101228
2014-07-19T06:17:50.190Z,101217
2014-07-19T06:18:07.786Z,101214
2014-07-19T06:18:26.130Z,101217
2014-07-19T06:18:43.723Z,101211
2014-07-19T06:19:00.692Z,101222
2014-07-19T06:19:18.428Z,101211
2014-07-19T06:19:36.662Z,101220
2014-07-19T06:19:54.240Z,101211
2014-07-19T06:20:12.462Z,101199
2014-07-19T06:20:30.071Z,101217
2014-07-19T06:20:48.290Z,101220
2014-07-19T06:21:06.011Z,101217
2014-07-19T06:21:24.245Z,101217
2014-07-19T06:21:41.198Z,101220
2014-07-19T06:21:59.433Z,101211
2014-07-19T06:22:16.387Z,101220
2014-07-19T06:22:34.621Z,101220
2014-07-19T06:22:52.230Z,101211
2014-07-19T06:23:09.826Z,101211
2014-07-19T06:23:27.420Z,101217
2014-07-19T06:23:45.014Z,101217
2014-07-19T06:24:02.623Z,101211
2014-07-19T06:24:20.984Z,101214
2014-07-19T06:24:38.578Z,101208
2014-07-19T06:24:56.172Z,101211
2014-07-19T06:25:13.127Z,101211
2014-07-19T06:25:30.861Z,101205
2014-07-19T06:25:48.455Z,101214
2014-07-19T06:26:06.815Z,101205
2014-07-19T06:26:24.410Z,101202
2014-07-19T06:26:41.379Z,101205
2014-07-19T06:26:59.738Z,101208
2014-07-19T06:27:18.084Z,101208
2014-07-19T06:27:36.303Z,101217
2014-07-19T06:27:54.537Z,101220
2014-07-19T06:28:12.881Z,101211
2014-07-19T06:28:31.242Z,101217
2014-07-19T06:28:48.836Z,101205
2014-07-19T06:29:06.430Z,101202
2014-07-19T06:29:24.165Z,101211
2014-07-19T06:29:41.900Z,101205
2014-07-19T06:30:00.243Z,101211
2014-07-19T06:30:18.481Z,101199
2014-07-19T06:30:36.700Z,101205
2014-07-19T06:30:54.293Z,101205
2014-07-19T06:31:12.653Z,101211
2014-07-19T06:31:29.622Z,101199
2014-07-19T06:31:47.841Z,101205
2014-07-19T06:32:06.201Z,101205
2014-07-19T06:32:23.797Z,101208
2014-07-19T06:32:42.016Z,101208
2014-07-19T06:33:00.250Z,101205
2014-07-19T06:33:19.533Z,101199
2014-07-19T06:33:37.751Z,101205
2014-07-19T06:33:54.095Z,101202
2014-07-19T06:34:12.314Z,101202
2014-07-19T06:34:29.301Z,101202
2014-07-19T06:34:47.520Z,101208
2014-07-19T06:35:05.739Z,101205
2014-07-19T06:35:24.084Z,101205
2014-07-19T06:36:12.771Z,101211
2014-07-19T06:36:30.493Z,101211
2014-07-19T06:36:48.087Z,101211
2014-07-19T06:37:05.055Z,101208
2014-07-19T06:37:22.649Z,101205
2014-07-19T06:37:40.245Z,101202
2014-07-19T06:37:58.464Z,101205
2014-07-19T06:38:16.057Z,101199
2014-07-19T06:38:33.652Z,101208
2014-07-19T06:38:51.386Z,101202
2014-07-19T06:39:09.105Z,101214
2014-07-19T06:39:49.357Z,101202
2014-07-19T06:40:07.717Z,101208
2014-07-19T06:40:25.951Z,101205
2014-07-19T06:40:43.548Z,101214
2014-07-19T06:41:01.907Z,101202
2014-07-19T06:41:19.485Z,101208
2014-07-19T06:41:37.080Z,101202
2014-07-19T06:41:54.674Z,101205
2014-07-19T06:42:12.908Z,101205
2014-07-19T06:42:31.127Z,101214
2014-07-19T06:42:48.098Z,101202
2014-07-19T06:43:05.707Z,101202
2014-07-19T06:43:23.926Z,101211
2014-07-19T06:43:42.146Z,101208
2014-07-19T06:43:59.756Z,101208
2014-07-19T06:44:16.709Z,101205
2014-07-19T06:44:34.930Z,101202
2014-07-19T06:44:53.164Z,101220
2014-07-19T06:45:11.383Z,101205
2014-07-19T06:45:29.602Z,101208
2014-07-19T06:45:47.197Z,101223
2014-07-19T06:46:05.557Z,101214
2014-07-19T06:46:23.775Z,101220
2014-07-19T06:46:41.372Z,101211
2014-07-19T06:46:58.966Z,101208
2014-07-19T06:47:16.560Z,101208
2014-07-19T06:47:34.138Z,101214
2014-07-19T06:47:52.374Z,101223
2014-07-19T06:48:09.343Z,101214
2014-07-19T06:48:27.562Z,101211
2014-07-19T06:48:45.156Z,101202
2014-07-19T06:49:02.750Z,101214
2014-07-19T06:49:20.344Z,101214
2014-07-19T06:49:38.580Z,101220
2014-07-19T06:49:56.299Z,101202
2014-07-19T06:50:14.533Z,101205
2014-07-19T06:50:32.752Z,101214
2014-07-19T06:50:51.098Z,101202
2014-07-19T06:51:09.332Z,101214
2014-07-19T06:51:28.582Z,101211
2014-07-19T06:51:46.694Z,101211
2014-07-19T06:52:03.662Z,101211
2014-07-19T06:52:21.256Z,101208
2014-07-19T06:53:09.305Z,101211
2014-07-19T06:53:27.524Z,101205
2014-07-19T06:53:45.745Z,101199
2014-07-19T06:54:03.963Z,101202
2014-07-19T06:54:22.323Z,101205
2014-07-19T06:54:40.041Z,101208
2014-07-19T06:54:58.262Z,101205
2014-07-19T06:55:15.856Z,101202
2014-07-19T06:55:33.465Z,101208
2014-07-19T06:55:51.061Z,101214
2014-07-19T06:56:09.295Z,101217
2014-07-19T06:56:27.499Z,101199
2014-07-19T06:56:45.093Z,101217
2014-07-19T06:57:02.078Z,101211
2014-07-19T06:57:20.296Z,101202
2014-07-19T06:57:37.890Z,101199
2014-07-19T06:57:56.253Z,101214
2014-07-19T06:58:14.471Z,101205
2014-07-19T06:58:32.706Z,101217
2014-07-19T06:58:50.926Z,101214
2014-07-19T06:59:07.395Z,101217
2014-07-19T06:59:25.005Z,101202
2014-07-19T06:59:42.583Z,101208
2014-07-19T07:00:00.943Z,101220
2014-07-19T07:00:19.302Z,101205
2014-07-19T07:00:36.896Z,101202
2014-07-19T07:00:55.243Z,101214
2014-07-19T07:01:12.837Z,101223
2014-07-19T07:01:31.196Z,101214
2014-07-19T07:01:48.790Z,101208
2014-07-19T07:02:06.385Z,101211
2014-07-19T07:02:24.603Z,101208
2014-07-19T07:02:42.822Z,101205
2014-07-19T07:02:59.794Z,101211
2014-07-19T07:03:18.028Z,101208
2014-07-19T07:03:36.247Z,101196
2014-07-19T07:03:53.841Z,101194
2014-07-19T07:04:11.435Z,101208
2014-07-19T07:04:29.654Z,101208
2014-07-19T07:04:46.623Z,101211
2014-07-19T07:05:04.845Z,101211
2014-07-19T07:05:22.579Z,101211
2014-07-19T07:05:39.548Z,101205
2014-07-19T07:05:57.769Z,101208
2014-07-19T07:06:16.050Z,101205
2014-07-19T07:06:33.644Z,101211
2014-07-19T07:06:51.237Z,101208
2014-07-19T07:07:09.458Z,101194
2014-07-19T07:07:27.052Z,101208
2014-07-19T07:07:44.646Z,101199
2014-07-19T07:08:02.241Z,101205
2014-07-19T07:08:20.460Z,101217
2014-07-19T07:08:38.679Z,101211
2014-07-19T07:08:56.273Z,101205
2014-07-19T07:09:13.867Z,101205
2014-07-19T07:09:32.086Z,101208
2014-07-19T07:09:49.680Z,101202
2014-07-19T07:10:07.916Z,101217
2014-07-19T07:10:26.260Z,101208
2014-07-19T07:10:43.854Z,101208
2014-07-19T07:11:02.090Z,101205
2014-07-19T07:11:19.684Z,101211
2014-07-19T07:11:37.278Z,101208
2014-07-19T07:11:55.637Z,101208
2014-07-19T07:12:13.858Z,101211
2014-07-19T07:12:31.592Z,101205
2014-07-19T07:12:49.811Z,101202
2014-07-19T07:13:08.094Z,101205
2014-07-19T07:13:25.703Z,101199
2014-07-19T07:13:42.750Z,101205
2014-07-19T07:14:00.330Z,101205
2014-07-19T07:14:18.565Z,101208
2014-07-19T07:14:36.784Z,101220
2014-07-19T07:14:53.877Z,101214
2014-07-19T07:15:11.473Z,101214
2014-07-19T07:15:29.707Z,101211
2014-07-19T07:15:47.301Z,101208
2014-07-19T07:16:05.522Z,101211
2014-07-19T07:16:23.116Z,101214
2014-07-19T07:16:41.334Z,101211
2014-07-19T07:16:58.928Z,101211
2014-07-19T07:17:17.149Z,101220
2014-07-19T07:17:34.118Z,101211
2014-07-19T07:17:52.336Z,101211
2014-07-19T07:18:10.573Z,101217
2014-07-19T07:18:28.792Z,101211
2014-07-19T07:18:47.135Z,101208
2014-07-19T07:19:04.887Z,101220
2014-07-19T07:19:21.856Z,101208
2014-07-19T07:19:39.450Z,101220
2014-07-19T07:19:57.200Z,101208
2014-07-19T07:20:14.796Z,101217
2014-07-19T07:20:31.764Z,101199
2014-07-19T07:20:49.483Z,101205
2014-07-19T07:21:07.719Z,101214
2014-07-19T07:21:25.313Z,101208
2014-07-19T07:21:43.532Z,101199
2014-07-19T07:22:01.893Z,101208
2014-07-19T07:22:18.862Z,101208
2014-07-19T07:22:37.206Z,101211
2014-07-19T07:22:54.815Z,101208
2014-07-19T07:23:12.410Z,101208
2014-07-19T07:23:30.629Z,101208
2014-07-19T07:23:47.597Z,101217
2014-07-19T07:24:05.318Z,101208
2014-07-19T07:24:23.553Z,101214
2014-07-19T07:24:41.896Z,101211
2014-07-19T07:25:00.133Z,101211
2014-07-19T07:25:18.351Z,101211
2014-07-19T07:25:36.570Z,101208
2014-07-19T07:25:54.930Z,101214
2014-07-19T07:26:13.150Z,101214
2014-07-19T07:26:30.744Z,101208
2014-07-19T07:26:49.103Z,101217
2014-07-19T07:27:07.324Z,101211
2014-07-19T07:27:25.043Z,101220
2014-07-19T07:27:43.262Z,101211
2014-07-19T07:28:00.855Z,101214
2014-07-19T07:28:19.075Z,101223
2014-07-19T07:28:37.310Z,101214
2014-07-19T07:28:55.653Z,101214
2014-07-19T07:29:12.625Z,101214
2014-07-19T07:29:30.219Z,101223
2014-07-19T07:29:48.438Z,101225
2014-07-19T07:30:06.032Z,101214
2014-07-19T07:30:23.626Z,101211
2014-07-19T07:30:41.220Z,101214
2014-07-19T07:30:59.454Z,101217
2014-07-19T07:31:16.550Z,101211
2014-07-19T07:31:34.769Z,101214
2014-07-19T07:31:53.003Z,101214
2014-07-19T07:32:11.225Z,101217
2014-07-19T07:32:29.444Z,101217
2014-07-19T07:32:47.178Z,101223
2014-07-19T07:33:05.538Z,101211
2014-07-19T07:33:23.148Z,101211
2014-07-19T07:33:40.741Z,101211
2014-07-19T07:33:58.335Z,101205
2014-07-19T07:34:16.556Z,101223
2014-07-19T07:34:34.790Z,101211
2014-07-19T07:34:51.118Z,101211
2014-07-19T07:35:08.730Z,101217
2014-07-19T07:35:26.324Z,101217
2014-07-19T07:35:44.542Z,101223
2014-07-19T07:36:02.136Z,101217
2014-07-19T07:36:19.732Z,101214
2014-07-19T07:36:37.326Z,101223
2014-07-19T07:36:55.060Z,101217
2014-07-19T07:37:13.281Z,101214
2014-07-19T07:37:31.640Z,101223
2014-07-19T07:37:49.249Z,101211
2014-07-19T07:38:07.470Z,101217
2014-07-19T07:38:25.705Z,101214
2014-07-19T07:39:14.503Z,101220
2014-07-19T07:39:32.722Z,101211
2014-07-19T07:39:50.957Z,101223
2014-07-19T07:40:07.941Z,101211
2014-07-19T07:40:26.162Z,101217
2014-07-19T07:40:43.880Z,101220
2014-07-19T07:41:00.990Z,101223
2014-07-19T07:41:17.961Z,101217
2014-07-19T07:41:36.195Z,101220
2014-07-19T07:41:54.554Z,101214
2014-07-19T07:42:11.509Z,101220
2014-07-19T07:42:29.869Z,101214
2014-07-19T07:42:47.463Z,101223
2014-07-19T07:43:05.697Z,101214
2014-07-19T07:43:23.293Z,101220
2014-07-19T07:43:41.511Z,101217
2014-07-19T07:43:59.246Z,101223
2014-07-19T07:44:17.482Z,101214
2014-07-19T07:44:35.076Z,101217
2014-07-19T07:44:52.045Z,101214
2014-07-19T07:45:10.263Z,101226
2014-07-19T07:45:28.499Z,101211
2014-07-19T07:45:46.718Z,101220
2014-07-19T07:46:05.077Z,101217
2014-07-19T07:46:21.424Z,101214
2014-07-19T07:46:39.736Z,101226
2014-07-19T07:46:57.924Z,101211
2014-07-19T07:47:15.517Z,101223
2014-07-19T07:47:33.754Z,101211
2014-07-19T07:47:51.973Z,101217
2014-07-19T07:48:09.582Z,101217
2014-07-19T07:48:27.787Z,101217
2014-07-19T07:48:46.428Z,101214
2014-07-19T07:49:06.412Z,101217
2014-07-19T07:49:24.789Z,101208
2014-07-19T07:49:42.523Z,101217
2014-07-19T07:50:00.742Z,101211
2014-07-19T07:50:18.336Z,101211
2014-07-19T07:50:36.572Z,101211
2014-07-19T07:50:54.307Z,101217
2014-07-19T07:51:11.900Z,101211
2014-07-19T07:51:30.262Z,101211
2014-07-19T07:51:48.496Z,101199
2014-07-19T07:52:06.715Z,101211
2014-07-19T07:52:24.311Z,101211
2014-07-19T07:52:42.545Z,101211
2014-07-19T07:53:00.904Z,101214
2014-07-19T07:53:19.123Z,101214
2014-07-19T07:53:37.344Z,101202
2014-07-19T07:53:55.703Z,101208
2014-07-19T07:54:13.922Z,101202
2014-07-19T07:54:31.518Z,101211
2014-07-19T07:54:48.002Z,101199
2014-07-19T07:55:05.596Z,101214
2014-07-19T07:55:22.567Z,101211
2014-07-19T07:55:40.785Z,101217
2014-07-19T07:55:58.520Z,101214
2014-07-19T07:56:16.254Z,101214
2014-07-19T07:56:33.849Z,101217
2014-07-19T07:56:52.208Z,101211
2014-07-19T07:57:10.427Z,101202
2014-07-19T07:57:28.663Z,101211
2014-07-19T07:57:47.023Z,101214
2014-07-19T07:58:04.617Z,101208
2014-07-19T07:58:22.210Z,101211
2014-07-19T07:58:40.572Z,101217
2014-07-19T07:58:58.806Z,101208
2014-07-19T07:59:16.400Z,101211
2014-07-19T07:59:34.136Z,101208
2014-07-19T07:59:52.355Z,101217
2014-07-19T08:00:09.949Z,101217
2014-07-19T08:00:28.185Z,101211
2014-07-19T08:00:46.404Z,101205
2014-07-19T08:01:03.998Z,101217
2014-07-19T08:01:22.357Z,101214
2014-07-19T08:01:40.593Z,101214
2014-07-19T08:01:58.953Z,101214
2014-07-19T08:02:16.671Z,101211
2014-07-19T08:02:35.048Z,101214
2014-07-19T08:02:53.408Z,101217
2014-07-19T08:03:10.377Z,101220
2014-07-19T08:03:27.971Z,101217
2014-07-19T08:03:46.331Z,101202
2014-07-19T08:04:03.924Z,101211
2014-07-19T08:04:21.518Z,101217
2014-07-19T08:04:39.756Z,101220
2014-07-19T08:04:57.349Z,101202
2014-07-19T08:05:14.318Z,101217
2014-07-19T08:05:32.538Z,101211
2014-07-19T08:05:50.772Z,101214
2014-07-19T08:06:09.132Z,101208
2014-07-19T08:06:27.353Z,101217
2014-07-19T08:06:45.572Z,101214
2014-07-19T08:07:03.306Z,101211
2014-07-19T08:07:21.525Z,101211
2014-07-19T08:07:39.762Z,101208
2014-07-19T08:07:57.980Z,101205
2014-07-19T08:08:14.949Z,101211
2014-07-19T08:08:33.185Z,101211
2014-07-19T08:08:51.404Z,101205
2014-07-19T08:09:09.764Z,101217
2014-07-19T08:09:27.982Z,101211
2014-07-19T08:09:45.578Z,101211
2014-07-19T08:10:02.562Z,101217
2014-07-19T08:10:20.922Z,101208
2014-07-19T08:10:38.517Z,101205
2014-07-19T08:10:56.110Z,101214
2014-07-19T08:11:14.345Z,101217
2014-07-19T08:11:32.563Z,101211
2014-07-19T08:11:50.815Z,101211
2014-07-19T08:12:09.034Z,101211
2014-07-19T08:12:26.769Z,101217
2014-07-19T08:12:44.364Z,101211
2014-07-19T08:13:02.599Z,101214
2014-07-19T08:13:20.192Z,101211
2014-07-19T08:13:37.804Z,101205
2014-07-19T08:13:55.523Z,101214
2014-07-19T08:14:13.757Z,101205
2014-07-19T08:14:31.976Z,101202
2014-07-19T08:14:49.087Z,101199
2014-07-19T08:15:06.056Z,101205
2014-07-19T08:15:24.275Z,101199
2014-07-19T08:15:42.511Z,101205
2014-07-19T08:15:59.464Z,101199
2014-07-19T08:16:17.198Z,101196
2014-07-19T08:16:34.808Z,101202
2014-07-19T08:16:53.169Z,101199
2014-07-19T08:17:10.904Z,101199
2014-07-19T08:17:28.497Z,101188
2014-07-19T08:17:46.734Z,101191
2014-07-19T08:18:04.968Z,101196
2014-07-19T08:18:23.187Z,101196
2014-07-19T08:18:41.548Z,101196
2014-07-19T08:18:59.283Z,101199
2014-07-19T08:19:17.501Z,101199
2014-07-19T08:19:35.720Z,101191
2014-07-19T08:19:53.956Z,101199
2014-07-19T08:20:12.175Z,101199
2014-07-19T08:20:29.785Z,101191
2014-07-19T08:20:47.380Z,101191
2014-07-19T08:21:05.724Z,101199
2014-07-19T10:35:34.388Z,101112
2014-07-19T10:35:52.716Z,101112
2014-07-19T10:36:09.672Z,101106
2014-07-19T10:36:27.234Z,101106
2014-07-19T10:36:44.797Z,101117
2014-07-19T10:37:02.375Z,101117
2014-07-19T10:37:20.580Z,101114
2014-07-19T10:37:38.908Z,101120
2014-07-19T10:37:55.845Z,101114
2014-07-19T10:38:14.051Z,101117
2014-07-19T10:38:30.988Z,101128
2014-07-19T10:38:47.926Z,101120
2014-07-19T10:39:05.504Z,101111
2014-07-19T10:39:23.068Z,101120
2014-07-19T10:39:41.271Z,101120
2014-07-19T10:39:59.599Z,101125
2014-07-19T10:40:16.680Z,101122
2014-07-19T10:40:34.883Z,101120
2014-07-19T10:40:52.461Z,101117
2014-07-19T10:41:10.648Z,101111
2014-07-19T10:41:28.228Z,101122
2014-07-19T10:41:46.432Z,101120
2014-07-19T10:42:03.369Z,101120
2014-07-19T10:42:20.949Z,101114
2014-07-19T10:42:38.512Z,101128
2014-07-19T10:42:55.590Z,101125
2014-07-19T10:43:13.793Z,101122
2014-07-19T10:43:31.356Z,101119
2014-07-19T10:43:47.685Z,101122
2014-07-19T10:44:05.872Z,101122
2014-07-19T10:44:23.453Z,101128
2014-07-19T10:44:41.641Z,101114
2014-07-19T10:44:59.219Z,101111
2014-07-19T10:45:17.422Z,101114
2014-07-19T10:45:34.985Z,101117
2014-07-19T10:45:52.564Z,101117
2014-07-19T10:46:10.142Z,101117
2014-07-19T10:46:28.348Z,101117
2014-07-19T10:46:45.910Z,101117
2014-07-19T10:47:02.988Z,101111
2014-07-19T10:47:19.926Z,101108
2014-07-19T10:47:38.131Z,101111
2014-07-19T10:47:55.694Z,101117
2014-07-19T10:48:13.897Z,101122
2014-07-19T10:48:31.476Z,101117
2014-07-19T10:48:49.679Z,101117
2014-07-19T10:49:07.882Z,101114
2014-07-19T10:49:26.210Z,101119
2014-07-19T10:49:43.151Z,101117
2014-07-19T10:50:01.479Z,101116
2014-07-19T10:50:19.041Z,101116
2014-07-19T10:50:36.745Z,101105
2014-07-19T10:50:54.949Z,101114
2014-07-19T10:51:12.652Z,101108
2014-07-19T10:51:30.230Z,101105
2014-07-19T10:51:47.794Z,101105
2014-07-19T10:52:05.372Z,101114
2014-07-19T10:52:23.701Z,101114
2014-07-19T10:52:41.281Z,101111
2014-07-19T10:52:59.484Z,101114
2014-07-19T10:53:17.187Z,101114
2014-07-19T10:53:34.892Z,101105
2014-07-19T10:53:53.236Z,101105
2014-07-19T10:54:11.564Z,101105
2014-07-19T10:54:29.751Z,101105
2014-07-19T10:54:47.957Z,101105
2014-07-19T10:55:05.550Z,101102
2014-07-19T10:55:23.738Z,101105
2014-07-19T10:55:41.318Z,101094
2014-07-19T10:55:59.646Z,101088
2014-07-19T10:56:17.224Z,101105
2014-07-19T10:56:34.929Z,101094
2014-07-19T10:56:52.507Z,101091
2014-07-19T10:57:13.226Z,101091
2014-07-19T10:57:31.429Z,101083
2014-07-19T10:57:49.634Z,101102
2014-07-19T10:58:07.978Z,101102
2014-07-19T10:58:56.011Z,101094
2014-07-19T10:59:13.590Z,101095
2014-07-19T10:59:31.777Z,101095
2014-07-19T10:59:49.982Z,101095
2014-07-19T11:00:07.560Z,101095
2014-07-19T11:00:25.763Z,101099
2014-07-19T11:00:43.969Z,101086
2014-07-19T11:01:32.281Z,101105
2014-07-19T11:01:49.846Z,101080
2014-07-19T11:02:07.424Z,101083
2014-07-19T11:02:24.986Z,101095
2014-07-19T11:02:41.925Z,101095
2014-07-19T11:02:59.503Z,101089
2014-07-19T11:03:17.065Z,101089
2014-07-19T11:03:34.643Z,101099
2014-07-19T11:03:52.209Z,101089
2014-07-19T11:04:10.553Z,101092
2014-07-19T11:04:28.740Z,101099
2014-07-19T11:04:45.695Z,101092
2014-07-19T11:05:03.898Z,101083
2014-07-19T11:05:21.461Z,101100
2014-07-19T11:05:39.039Z,101086
2014-07-19T11:05:56.743Z,101092
2014-07-19T11:06:14.962Z,101080
2014-07-19T11:06:33.165Z,101092
2014-07-19T11:06:50.731Z,101086
2014-07-19T11:07:08.309Z,101089
2014-07-19T11:07:26.012Z,101089
2014-07-19T11:07:44.216Z,101083
2014-07-19T11:08:01.794Z,101095
2014-07-19T11:08:19.997Z,101092
2014-07-19T11:08:37.560Z,101095
2014-07-19T11:08:55.765Z,101092
2014-07-19T11:09:14.093Z,101086
2014-07-19T11:09:32.296Z,101092
2014-07-19T11:09:50.643Z,101089
2014-07-19T11:10:08.205Z,101089
2014-07-19T11:10:25.158Z,101089
2014-07-19T11:10:42.721Z,101095
2014-07-19T11:11:00.425Z,101083
2014-07-19T11:11:18.628Z,101089
2014-07-19T11:11:36.347Z,101086
2014-07-19T11:11:53.286Z,101099
2014-07-19T11:12:11.474Z,101080
2014-07-19T11:12:29.177Z,101083
2014-07-19T11:12:46.755Z,101083
2014-07-19T11:13:04.460Z,101086
2014-07-19T11:13:22.163Z,101077
2014-07-19T11:13:39.726Z,101083
2014-07-19T11:13:56.807Z,101083
2014-07-19T11:14:15.010Z,101074
2014-07-19T11:14:33.213Z,101074
2014-07-19T11:14:50.792Z,101071
2014-07-19T11:15:09.121Z,101071
2014-07-19T11:15:26.824Z,101068
2014-07-19T11:15:44.402Z,101071
2014-07-19T11:16:01.998Z,101071
2014-07-19T11:16:19.560Z,101071
2014-07-19T11:16:37.763Z,101068
2014-07-19T11:16:56.093Z,101066
2014-07-19T11:17:14.312Z,101063
2014-07-19T11:17:31.265Z,101071
2014-07-19T11:17:49.609Z,101071
2014-07-19T11:18:07.189Z,101060
2014-07-19T11:18:25.392Z,101080
2014-07-19T11:18:42.970Z,101071